sensor_id;sensor_type;location;lat;lon;timestamp;temperature;humidity
22436;DHT22;11385;50.822;4.324;2023-04-03T00:01:34;6.40;99.90
22436;DHT22;11385;50.822;4.324;2023-04-03T00:04:05;6.40;99.90
22436;DHT22;11385;50.822;4.324;2023-04-03T00:06:32;6.40;99.90
22436;DHT22;11385;50.822;4.324;2023-04-03T00:08:59;6.40;99.90
22436;DHT22;11385;50.822;4.324;2023-04-03T00:11:26;6.40;99.90
22436;DHT22;11385;50.822;4.324;2023-04-03T00:13:54;6.40;99.90
22436;DHT22;11385;50.822;4.324;2023-04-03T00:16:21;6.50;99.90
22436;DHT22;11385;50.822;4.324;2023-04-03T00:18:47;6.50;99.90
22436;DHT22;11385;50.822;4.324;2023-04-03T00:21:14;6.50;99.90
22436;DHT22;11385;50.822;4.324;2023-04-03T00:23:42;6.40;99.90
22436;DHT22;11385;50.822;4.324;2023-04-03T00:26:08;6.20;99.90
22436;DHT22;11385;50.822;4.324;2023-04-03T00:28:35;6.00;99.90
22436;DHT22;11385;50.822;4.324;2023-04-03T00:31:02;6.00;99.90
22436;DHT22;11385;50.822;4.324;2023-04-03T00:33:29;6.00;99.90
22436;DHT22;11385;50.822;4.324;2023-04-03T00:35:56;6.00;99.90
22436;DHT22;11385;50.822;4.324;2023-04-03T00:38:22;6.20;99.90
22436;DHT22;11385;50.822;4.324;2023-04-03T00:40:49;6.20;99.90
22436;DHT22;11385;50.822;4.324;2023-04-03T00:43:20;6.10;99.90
22436;DHT22;11385;50.822;4.324;2023-04-03T00:45:49;6.30;99.90
22436;DHT22;11385;50.822;4.324;2023-04-03T00:48:20;6.30;99.90
22436;DHT22;11385;50.822;4.324;2023-04-03T00:50:49;6.10;99.90
22436;DHT22;11385;50.822;4.324;2023-04-03T00:53:20;6.10;99.90
22436;DHT22;11385;50.822;4.324;2023-04-03T00:55:48;6.00;99.90
22436;DHT22;11385;50.822;4.324;2023-04-03T00:58:18;6.00;99.90
22436;DHT22;11385;50.822;4.324;2023-04-03T01:00:48;6.00;99.90
22436;DHT22;11385;50.822;4.324;2023-04-03T01:03:16;5.90;99.90
22436;DHT22;11385;50.822;4.324;2023-04-03T01:05:43;5.90;99.90
22436;DHT22;11385;50.822;4.324;2023-04-03T01:08:09;6.10;99.90
22436;DHT22;11385;50.822;4.324;2023-04-03T01:10:37;6.10;99.90
22436;DHT22;11385;50.822;4.324;2023-04-03T01:15:38;6.00;99.90
22436;DHT22;11385;50.822;4.324;2023-04-03T01:18:05;6.00;99.90
22436;DHT22;11385;50.822;4.324;2023-04-03T01:20:44;6.00;99.90
22436;DHT22;11385;50.822;4.324;2023-04-03T01:25:50;5.80;99.90
22436;DHT22;11385;50.822;4.324;2023-04-03T01:28:21;6.00;99.90
22436;DHT22;11385;50.822;4.324;2023-04-03T01:30:53;5.80;99.90
22436;DHT22;11385;50.822;4.324;2023-04-03T01:33:21;5.90;99.90
22436;DHT22;11385;50.822;4.324;2023-04-03T01:35:48;5.90;99.90
22436;DHT22;11385;50.822;4.324;2023-04-03T01:38:14;5.80;99.90
22436;DHT22;11385;50.822;4.324;2023-04-03T01:40:42;5.80;99.90
22436;DHT22;11385;50.822;4.324;2023-04-03T01:43:09;5.80;99.90
22436;DHT22;11385;50.822;4.324;2023-04-03T01:45:35;5.70;99.90
22436;DHT22;11385;50.822;4.324;2023-04-03T01:48:03;5.90;99.90
22436;DHT22;11385;50.822;4.324;2023-04-03T01:50:30;5.70;99.90
22436;DHT22;11385;50.822;4.324;2023-04-03T01:52:57;5.60;99.90
22436;DHT22;11385;50.822;4.324;2023-04-03T01:55:24;5.60;99.90
22436;DHT22;11385;50.822;4.324;2023-04-03T01:57:50;5.50;99.90
22436;DHT22;11385;50.822;4.324;2023-04-03T02:00:17;5.60;99.90
22436;DHT22;11385;50.822;4.324;2023-04-03T02:02:44;5.70;99.90
22436;DHT22;11385;50.822;4.324;2023-04-03T02:05:11;5.60;99.90
22436;DHT22;11385;50.822;4.324;2023-04-03T02:07:37;5.40;99.90
22436;DHT22;11385;50.822;4.324;2023-04-03T02:10:04;5.40;99.90
22436;DHT22;11385;50.822;4.324;2023-04-03T02:12:31;5.30;99.90
22436;DHT22;11385;50.822;4.324;2023-04-03T02:14:58;5.50;99.90
22436;DHT22;11385;50.822;4.324;2023-04-03T02:17:24;5.40;99.90
22436;DHT22;11385;50.822;4.324;2023-04-03T02:19:51;5.40;99.90
22436;DHT22;11385;50.822;4.324;2023-04-03T02:22:18;5.40;99.90
22436;DHT22;11385;50.822;4.324;2023-04-03T02:24:45;5.50;99.90
22436;DHT22;11385;50.822;4.324;2023-04-03T02:27:12;5.40;99.90
22436;DHT22;11385;50.822;4.324;2023-04-03T02:29:38;5.20;99.90
22436;DHT22;11385;50.822;4.324;2023-04-03T02:32:05;5.40;99.90
22436;DHT22;11385;50.822;4.324;2023-04-03T02:34:31;5.20;99.90
22436;DHT22;11385;50.822;4.324;2023-04-03T02:36:58;5.10;99.90
22436;DHT22;11385;50.822;4.324;2023-04-03T02:39:25;5.10;99.90
22436;DHT22;11385;50.822;4.324;2023-04-03T02:41:52;5.20;99.90
22436;DHT22;11385;50.822;4.324;2023-04-03T02:44:18;5.30;99.90
22436;DHT22;11385;50.822;4.324;2023-04-03T02:46:45;5.30;99.90
22436;DHT22;11385;50.822;4.324;2023-04-03T02:49:12;5.20;99.90
22436;DHT22;11385;50.822;4.324;2023-04-03T02:51:39;5.20;99.90
22436;DHT22;11385;50.822;4.324;2023-04-03T02:54:05;5.20;99.90
22436;DHT22;11385;50.822;4.324;2023-04-03T02:56:32;5.10;99.90
22436;DHT22;11385;50.822;4.324;2023-04-03T02:58:59;5.10;99.90
22436;DHT22;11385;50.822;4.324;2023-04-03T03:01:25;5.20;99.90
22436;DHT22;11385;50.822;4.324;2023-04-03T03:03:54;5.10;99.90
22436;DHT22;11385;50.822;4.324;2023-04-03T03:06:21;4.80;99.90
22436;DHT22;11385;50.822;4.324;2023-04-03T03:08:48;4.80;99.90
22436;DHT22;11385;50.822;4.324;2023-04-03T03:11:14;4.80;99.90
22436;DHT22;11385;50.822;4.324;2023-04-03T03:13:41;4.90;99.90
22436;DHT22;11385;50.822;4.324;2023-04-03T03:16:08;5.00;99.90
22436;DHT22;11385;50.822;4.324;2023-04-03T03:18:35;5.00;99.90
22436;DHT22;11385;50.822;4.324;2023-04-03T03:21:03;5.10;99.90
22436;DHT22;11385;50.822;4.324;2023-04-03T03:23:32;4.90;99.90
22436;DHT22;11385;50.822;4.324;2023-04-03T03:26:02;4.90;99.90
22436;DHT22;11385;50.822;4.324;2023-04-03T03:28:29;4.80;99.90
22436;DHT22;11385;50.822;4.324;2023-04-03T03:30:57;5.00;99.90
22436;DHT22;11385;50.822;4.324;2023-04-03T03:33:25;5.10;99.90
22436;DHT22;11385;50.822;4.324;2023-04-03T03:35:54;4.90;99.90
22436;DHT22;11385;50.822;4.324;2023-04-03T03:38:22;4.70;99.90
22436;DHT22;11385;50.822;4.324;2023-04-03T03:40:50;4.70;99.90
22436;DHT22;11385;50.822;4.324;2023-04-03T03:43:18;4.90;99.90
22436;DHT22;11385;50.822;4.324;2023-04-03T03:45:45;4.90;99.90
22436;DHT22;11385;50.822;4.324;2023-04-03T03:48:13;4.70;99.90
22436;DHT22;11385;50.822;4.324;2023-04-03T03:50:40;4.70;99.90
22436;DHT22;11385;50.822;4.324;2023-04-03T03:53:07;4.70;99.90
22436;DHT22;11385;50.822;4.324;2023-04-03T03:55:34;4.80;99.90
22436;DHT22;11385;50.822;4.324;2023-04-03T03:58:00;4.70;99.90
22436;DHT22;11385;50.822;4.324;2023-04-03T04:00:28;4.70;99.90
22436;DHT22;11385;50.822;4.324;2023-04-03T04:02:54;4.70;99.90
22436;DHT22;11385;50.822;4.324;2023-04-03T04:05:22;4.80;99.90
22436;DHT22;11385;50.822;4.324;2023-04-03T04:07:48;4.70;99.90
22436;DHT22;11385;50.822;4.324;2023-04-03T04:10:16;4.70;99.90
22436;DHT22;11385;50.822;4.324;2023-04-03T04:12:43;4.70;99.90
22436;DHT22;11385;50.822;4.324;2023-04-03T04:15:10;4.60;99.90
22436;DHT22;11385;50.822;4.324;2023-04-03T04:17:36;4.50;99.90
22436;DHT22;11385;50.822;4.324;2023-04-03T04:20:03;4.50;99.90
22436;DHT22;11385;50.822;4.324;2023-04-03T04:22:31;4.60;99.90
22436;DHT22;11385;50.822;4.324;2023-04-03T04:24:57;4.70;99.90
22436;DHT22;11385;50.822;4.324;2023-04-03T04:27:24;4.80;99.90
22436;DHT22;11385;50.822;4.324;2023-04-03T04:29:50;4.90;99.90
22436;DHT22;11385;50.822;4.324;2023-04-03T04:32:17;4.90;99.90
22436;DHT22;11385;50.822;4.324;2023-04-03T04:34:44;4.90;99.90
22436;DHT22;11385;50.822;4.324;2023-04-03T04:37:10;4.90;99.90
22436;DHT22;11385;50.822;4.324;2023-04-03T04:39:37;4.80;99.90
22436;DHT22;11385;50.822;4.324;2023-04-03T04:42:05;4.70;99.90
22436;DHT22;11385;50.822;4.324;2023-04-03T04:44:33;4.70;99.90
22436;DHT22;11385;50.822;4.324;2023-04-03T04:46:59;4.60;99.90
22436;DHT22;11385;50.822;4.324;2023-04-03T04:49:26;4.70;99.90
22436;DHT22;11385;50.822;4.324;2023-04-03T04:51:53;4.80;99.90
22436;DHT22;11385;50.822;4.324;2023-04-03T04:54:19;4.60;99.90
22436;DHT22;11385;50.822;4.324;2023-04-03T04:56:46;4.50;99.90
22436;DHT22;11385;50.822;4.324;2023-04-03T04:59:13;4.50;99.90
22436;DHT22;11385;50.822;4.324;2023-04-03T05:01:39;4.50;99.90
22436;DHT22;11385;50.822;4.324;2023-04-03T05:04:06;4.60;99.90
22436;DHT22;11385;50.822;4.324;2023-04-03T05:06:35;4.50;99.90
22436;DHT22;11385;50.822;4.324;2023-04-03T05:09:01;4.50;99.90
22436;DHT22;11385;50.822;4.324;2023-04-03T05:11:28;4.50;99.90
22436;DHT22;11385;50.822;4.324;2023-04-03T05:13:55;4.60;99.90
22436;DHT22;11385;50.822;4.324;2023-04-03T05:16:22;4.50;99.90
22436;DHT22;11385;50.822;4.324;2023-04-03T05:18:48;4.50;99.90
22436;DHT22;11385;50.822;4.324;2023-04-03T05:21:15;4.50;99.90
22436;DHT22;11385;50.822;4.324;2023-04-03T05:23:44;4.30;99.90
22436;DHT22;11385;50.822;4.324;2023-04-03T05:26:10;4.40;99.90
22436;DHT22;11385;50.822;4.324;2023-04-03T05:28:37;4.30;99.90
22436;DHT22;11385;50.822;4.324;2023-04-03T05:31:04;4.30;99.90
22436;DHT22;11385;50.822;4.324;2023-04-03T05:33:30;4.40;99.90
22436;DHT22;11385;50.822;4.324;2023-04-03T05:36:03;4.30;99.90
22436;DHT22;11385;50.822;4.324;2023-04-03T05:38:31;4.20;99.90
22436;DHT22;11385;50.822;4.324;2023-04-03T05:40:58;4.10;99.90
22436;DHT22;11385;50.822;4.324;2023-04-03T05:43:25;4.10;99.90
22436;DHT22;11385;50.822;4.324;2023-04-03T05:45:52;4.20;99.90
22436;DHT22;11385;50.822;4.324;2023-04-03T05:48:19;4.30;99.90
22436;DHT22;11385;50.822;4.324;2023-04-03T05:50:46;4.30;99.90
22436;DHT22;11385;50.822;4.324;2023-04-03T05:53:17;4.40;99.90
22436;DHT22;11385;50.822;4.324;2023-04-03T05:55:44;4.30;99.90
22436;DHT22;11385;50.822;4.324;2023-04-03T05:58:10;4.30;99.90
22436;DHT22;11385;50.822;4.324;2023-04-03T06:00:37;4.50;99.90
22436;DHT22;11385;50.822;4.324;2023-04-03T06:03:04;4.60;99.90
22436;DHT22;11385;50.822;4.324;2023-04-03T06:05:32;4.50;99.90
22436;DHT22;11385;50.822;4.324;2023-04-03T06:07:59;4.50;99.90
22436;DHT22;11385;50.822;4.324;2023-04-03T06:10:26;4.50;99.90
22436;DHT22;11385;50.822;4.324;2023-04-03T06:12:53;4.50;99.90
22436;DHT22;11385;50.822;4.324;2023-04-03T06:15:20;4.40;99.90
22436;DHT22;11385;50.822;4.324;2023-04-03T06:17:48;4.40;99.90
22436;DHT22;11385;50.822;4.324;2023-04-03T06:20:14;4.40;99.90
22436;DHT22;11385;50.822;4.324;2023-04-03T06:22:42;4.60;99.90
22436;DHT22;11385;50.822;4.324;2023-04-03T06:25:09;4.70;99.90
22436;DHT22;11385;50.822;4.324;2023-04-03T06:27:36;4.70;99.90
22436;DHT22;11385;50.822;4.324;2023-04-03T06:30:03;4.80;99.90
22436;DHT22;11385;50.822;4.324;2023-04-03T06:32:30;4.90;99.90
22436;DHT22;11385;50.822;4.324;2023-04-03T06:34:57;5.10;99.90
22436;DHT22;11385;50.822;4.324;2023-04-03T06:37:24;5.20;99.90
22436;DHT22;11385;50.822;4.324;2023-04-03T06:39:54;5.40;99.90
22436;DHT22;11385;50.822;4.324;2023-04-03T06:42:22;5.40;99.90
22436;DHT22;11385;50.822;4.324;2023-04-03T06:44:49;5.40;99.90
22436;DHT22;11385;50.822;4.324;2023-04-03T06:47:16;5.50;99.90
22436;DHT22;11385;50.822;4.324;2023-04-03T06:49:44;5.60;99.90
22436;DHT22;11385;50.822;4.324;2023-04-03T06:52:10;5.50;99.90
22436;DHT22;11385;50.822;4.324;2023-04-03T06:54:38;5.60;99.90
22436;DHT22;11385;50.822;4.324;2023-04-03T06:57:06;5.50;99.90
22436;DHT22;11385;50.822;4.324;2023-04-03T06:59:32;5.60;99.90
22436;DHT22;11385;50.822;4.324;2023-04-03T07:02:00;5.60;99.90
22436;DHT22;11385;50.822;4.324;2023-04-03T07:04:27;5.60;99.90
22436;DHT22;11385;50.822;4.324;2023-04-03T07:06:53;5.60;99.90
22436;DHT22;11385;50.822;4.324;2023-04-03T07:09:20;5.60;99.90
22436;DHT22;11385;50.822;4.324;2023-04-03T07:11:47;5.50;99.90
22436;DHT22;11385;50.822;4.324;2023-04-03T07:14:14;5.40;99.90
22436;DHT22;11385;50.822;4.324;2023-04-03T07:16:40;5.30;99.90
22436;DHT22;11385;50.822;4.324;2023-04-03T07:19:09;5.50;99.90
22436;DHT22;11385;50.822;4.324;2023-04-03T07:21:35;5.50;99.90
22436;DHT22;11385;50.822;4.324;2023-04-03T07:24:03;5.50;99.90
22436;DHT22;11385;50.822;4.324;2023-04-03T07:26:30;5.70;99.90
22436;DHT22;11385;50.822;4.324;2023-04-03T07:28:57;5.60;99.90
22436;DHT22;11385;50.822;4.324;2023-04-03T07:31:24;5.70;99.90
22436;DHT22;11385;50.822;4.324;2023-04-03T07:33:53;5.80;99.90
22436;DHT22;11385;50.822;4.324;2023-04-03T07:36:21;5.80;99.90
22436;DHT22;11385;50.822;4.324;2023-04-03T07:38:49;5.80;99.90
22436;DHT22;11385;50.822;4.324;2023-04-03T07:41:17;5.80;99.90
22436;DHT22;11385;50.822;4.324;2023-04-03T07:43:46;5.90;99.90
22436;DHT22;11385;50.822;4.324;2023-04-03T07:46:13;6.00;99.90
22436;DHT22;11385;50.822;4.324;2023-04-03T07:48:39;6.00;99.90
22436;DHT22;11385;50.822;4.324;2023-04-03T07:51:06;6.00;99.90
22436;DHT22;11385;50.822;4.324;2023-04-03T07:53:33;6.10;99.90
22436;DHT22;11385;50.822;4.324;2023-04-03T07:56:00;6.20;99.90
22436;DHT22;11385;50.822;4.324;2023-04-03T07:58:29;6.40;99.90
22436;DHT22;11385;50.822;4.324;2023-04-03T08:00:56;6.50;99.90
22436;DHT22;11385;50.822;4.324;2023-04-03T08:03:23;6.30;99.90
22436;DHT22;11385;50.822;4.324;2023-04-03T08:05:50;6.40;99.90
22436;DHT22;11385;50.822;4.324;2023-04-03T08:08:19;6.60;99.90
22436;DHT22;11385;50.822;4.324;2023-04-03T08:10:49;6.50;99.90
22436;DHT22;11385;50.822;4.324;2023-04-03T08:13:16;6.40;99.90
22436;DHT22;11385;50.822;4.324;2023-04-03T08:15:45;6.30;99.90
22436;DHT22;11385;50.822;4.324;2023-04-03T08:18:13;6.40;99.90
22436;DHT22;11385;50.822;4.324;2023-04-03T08:20:40;6.80;99.90
22436;DHT22;11385;50.822;4.324;2023-04-03T08:23:08;6.90;99.90
22436;DHT22;11385;50.822;4.324;2023-04-03T08:25:39;6.80;99.90
22436;DHT22;11385;50.822;4.324;2023-04-03T08:28:06;6.80;99.90
22436;DHT22;11385;50.822;4.324;2023-04-03T08:30:33;7.00;99.90
22436;DHT22;11385;50.822;4.324;2023-04-03T08:33:01;7.10;99.90
22436;DHT22;11385;50.822;4.324;2023-04-03T08:35:28;7.20;99.90
22436;DHT22;11385;50.822;4.324;2023-04-03T08:37:55;7.40;99.90
22436;DHT22;11385;50.822;4.324;2023-04-03T08:40:22;7.20;99.90
22436;DHT22;11385;50.822;4.324;2023-04-03T08:43:01;7.00;99.90
22436;DHT22;11385;50.822;4.324;2023-04-03T08:45:41;7.20;99.90
22436;DHT22;11385;50.822;4.324;2023-04-03T08:48:08;7.50;99.90
22436;DHT22;11385;50.822;4.324;2023-04-03T08:50:40;7.60;99.90
22436;DHT22;11385;50.822;4.324;2023-04-03T08:53:15;7.50;99.90
22436;DHT22;11385;50.822;4.324;2023-04-03T08:55:45;7.40;99.90
22436;DHT22;11385;50.822;4.324;2023-04-03T08:58:21;7.40;99.90
22436;DHT22;11385;50.822;4.324;2023-04-03T09:00:53;7.40;99.90
22436;DHT22;11385;50.822;4.324;2023-04-03T09:03:21;7.60;99.90
22436;DHT22;11385;50.822;4.324;2023-04-03T09:06:00;7.60;99.90
22436;DHT22;11385;50.822;4.324;2023-04-03T09:08:29;7.70;99.90
22436;DHT22;11385;50.822;4.324;2023-04-03T09:11:09;7.80;99.90
22436;DHT22;11385;50.822;4.324;2023-04-03T09:13:49;7.70;99.90
22436;DHT22;11385;50.822;4.324;2023-04-03T09:16:39;7.80;99.90
22436;DHT22;11385;50.822;4.324;2023-04-03T09:19:14;7.80;99.90
22436;DHT22;11385;50.822;4.324;2023-04-03T09:21:39;7.90;99.90
22436;DHT22;11385;50.822;4.324;2023-04-03T09:24:12;7.90;99.90
22436;DHT22;11385;50.822;4.324;2023-04-03T09:26:47;7.90;99.90
22436;DHT22;11385;50.822;4.324;2023-04-03T09:29:18;8.00;99.90
22436;DHT22;11385;50.822;4.324;2023-04-03T09:31:48;8.20;99.90
22436;DHT22;11385;50.822;4.324;2023-04-03T09:34:23;8.20;99.90
22436;DHT22;11385;50.822;4.324;2023-04-03T09:36:54;8.30;99.90
22436;DHT22;11385;50.822;4.324;2023-04-03T09:39:23;8.30;99.90
22436;DHT22;11385;50.822;4.324;2023-04-03T09:42:01;8.30;99.90
22436;DHT22;11385;50.822;4.324;2023-04-03T09:44:31;8.30;99.90
22436;DHT22;11385;50.822;4.324;2023-04-03T09:46:59;8.30;99.90
22436;DHT22;11385;50.822;4.324;2023-04-03T09:49:28;8.60;99.90
22436;DHT22;11385;50.822;4.324;2023-04-03T09:51:54;8.80;99.90
22436;DHT22;11385;50.822;4.324;2023-04-03T09:54:33;8.80;99.90
22436;DHT22;11385;50.822;4.324;2023-04-03T09:57:07;8.80;99.90
22436;DHT22;11385;50.822;4.324;2023-04-03T09:59:43;8.70;99.90
22436;DHT22;11385;50.822;4.324;2023-04-03T10:04:57;8.70;99.90
22436;DHT22;11385;50.822;4.324;2023-04-03T10:07:31;8.70;99.90
22436;DHT22;11385;50.822;4.324;2023-04-03T10:10:02;8.70;99.90
22436;DHT22;11385;50.822;4.324;2023-04-03T10:12:29;8.80;99.90
22436;DHT22;11385;50.822;4.324;2023-04-03T10:14:58;8.90;99.90
22436;DHT22;11385;50.822;4.324;2023-04-03T10:17:37;9.00;99.90
22436;DHT22;11385;50.822;4.324;2023-04-03T10:20:07;9.20;99.90
22436;DHT22;11385;50.822;4.324;2023-04-03T10:22:41;9.20;99.90
22436;DHT22;11385;50.822;4.324;2023-04-03T10:25:21;9.20;99.90
22436;DHT22;11385;50.822;4.324;2023-04-03T10:27:54;9.30;99.90
22436;DHT22;11385;50.822;4.324;2023-04-03T10:30:29;9.40;99.90
22436;DHT22;11385;50.822;4.324;2023-04-03T10:33:34;9.50;99.90
22436;DHT22;11385;50.822;4.324;2023-04-03T10:35:51;9.50;99.90
22436;DHT22;11385;50.822;4.324;2023-04-03T10:39:26;9.50;99.90
22436;DHT22;11385;50.822;4.324;2023-04-03T10:41:07;9.70;99.90
22436;DHT22;11385;50.822;4.324;2023-04-03T10:43:38;9.80;99.90
22436;DHT22;11385;50.822;4.324;2023-04-03T10:46:21;9.70;99.90
22436;DHT22;11385;50.822;4.324;2023-04-03T10:48:59;9.80;99.90
22436;DHT22;11385;50.822;4.324;2023-04-03T10:51:29;9.80;99.90
22436;DHT22;11385;50.822;4.324;2023-04-03T10:56:47;10.00;99.90
22436;DHT22;11385;50.822;4.324;2023-04-03T10:59:21;10.10;99.90
22436;DHT22;11385;50.822;4.324;2023-04-03T11:02:10;10.20;99.90
22436;DHT22;11385;50.822;4.324;2023-04-03T11:04:37;10.10;99.90
22436;DHT22;11385;50.822;4.324;2023-04-03T11:07:20;10.10;99.90
22436;DHT22;11385;50.822;4.324;2023-04-03T11:09:52;10.20;99.90
22436;DHT22;11385;50.822;4.324;2023-04-03T11:12:25;10.20;99.90
22436;DHT22;11385;50.822;4.324;2023-04-03T11:14:54;10.30;99.90
22436;DHT22;11385;50.822;4.324;2023-04-03T11:17:27;10.40;99.90
22436;DHT22;11385;50.822;4.324;2023-04-03T11:22:41;10.30;99.90
22436;DHT22;11385;50.822;4.324;2023-04-03T11:25:20;10.30;99.90
22436;DHT22;11385;50.822;4.324;2023-04-03T11:28:04;10.40;99.90
22436;DHT22;11385;50.822;4.324;2023-04-03T11:30:42;10.40;99.90
22436;DHT22;11385;50.822;4.324;2023-04-03T11:34:05;10.40;99.90
22436;DHT22;11385;50.822;4.324;2023-04-03T11:36:22;10.40;99.90
22436;DHT22;11385;50.822;4.324;2023-04-03T11:38:53;10.60;99.90
22436;DHT22;11385;50.822;4.324;2023-04-03T11:41:26;10.80;99.90
22436;DHT22;11385;50.822;4.324;2023-04-03T11:44:00;10.60;99.90
22436;DHT22;11385;50.822;4.324;2023-04-03T11:49:49;10.70;99.90
22436;DHT22;11385;50.822;4.324;2023-04-03T11:51:42;10.80;99.90
22436;DHT22;11385;50.822;4.324;2023-04-03T11:56:44;10.90;99.90
22436;DHT22;11385;50.822;4.324;2023-04-03T11:59:16;11.00;99.90
22436;DHT22;11385;50.822;4.324;2023-04-03T12:01:47;11.00;99.90
22436;DHT22;11385;50.822;4.324;2023-04-03T12:04:16;11.00;99.90
22436;DHT22;11385;50.822;4.324;2023-04-03T12:06:59;11.10;99.90
22436;DHT22;11385;50.822;4.324;2023-04-03T12:14:51;11.50;99.90
22436;DHT22;11385;50.822;4.324;2023-04-03T12:17:27;11.50;99.90
22436;DHT22;11385;50.822;4.324;2023-04-03T12:19:55;11.40;99.90
22436;DHT22;11385;50.822;4.324;2023-04-03T12:22:22;11.40;99.90
22436;DHT22;11385;50.822;4.324;2023-04-03T12:24:52;11.40;99.90
22436;DHT22;11385;50.822;4.324;2023-04-03T12:27:29;11.30;99.90
22436;DHT22;11385;50.822;4.324;2023-04-03T12:30:21;11.40;99.90
22436;DHT22;11385;50.822;4.324;2023-04-03T12:33:13;11.20;99.90
22436;DHT22;11385;50.822;4.324;2023-04-03T12:35:44;11.40;99.90
22436;DHT22;11385;50.822;4.324;2023-04-03T12:39:25;11.40;99.90
22436;DHT22;11385;50.822;4.324;2023-04-03T12:43:50;11.40;99.90
22436;DHT22;11385;50.822;4.324;2023-04-03T12:46:21;11.60;99.90
22436;DHT22;11385;50.822;4.324;2023-04-03T12:48:54;11.50;99.90
22436;DHT22;11385;50.822;4.324;2023-04-03T12:54:01;11.40;99.90
22436;DHT22;11385;50.822;4.324;2023-04-03T12:56:31;11.40;99.90
22436;DHT22;11385;50.822;4.324;2023-04-03T12:59:14;11.40;99.90
22436;DHT22;11385;50.822;4.324;2023-04-03T13:01:43;11.30;99.90
22436;DHT22;11385;50.822;4.324;2023-04-03T13:04:11;11.10;99.90
22436;DHT22;11385;50.822;4.324;2023-04-03T13:06:40;11.20;99.90
22436;DHT22;11385;50.822;4.324;2023-04-03T13:11:43;11.20;99.90
22436;DHT22;11385;50.822;4.324;2023-04-03T13:14:18;11.40;99.90
22436;DHT22;11385;50.822;4.324;2023-04-03T13:16:53;11.40;99.90
22436;DHT22;11385;50.822;4.324;2023-04-03T13:19:25;11.40;99.80
22436;DHT22;11385;50.822;4.324;2023-04-03T13:21:57;11.60;99.10
22436;DHT22;11385;50.822;4.324;2023-04-03T13:24:24;11.70;98.80
22436;DHT22;11385;50.822;4.324;2023-04-03T13:26:51;11.50;99.00
22436;DHT22;11385;50.822;4.324;2023-04-03T13:29:29;11.60;98.70
22436;DHT22;11385;50.822;4.324;2023-04-03T13:31:57;11.60;98.40
22436;DHT22;11385;50.822;4.324;2023-04-03T13:34:26;11.80;96.80
22436;DHT22;11385;50.822;4.324;2023-04-03T13:36:58;11.80;96.80
22436;DHT22;11385;50.822;4.324;2023-04-03T13:39:26;11.80;95.90
22436;DHT22;11385;50.822;4.324;2023-04-03T13:41:55;11.80;96.10
22436;DHT22;11385;50.822;4.324;2023-04-03T13:44:29;11.80;95.70
22436;DHT22;11385;50.822;4.324;2023-04-03T13:47:14;11.70;95.60
22436;DHT22;11385;50.822;4.324;2023-04-03T13:49:41;11.60;96.30
22436;DHT22;11385;50.822;4.324;2023-04-03T13:52:20;11.90;95.60
22436;DHT22;11385;50.822;4.324;2023-04-03T13:54:47;12.00;94.50
22436;DHT22;11385;50.822;4.324;2023-04-03T13:57:15;12.10;94.30
22436;DHT22;11385;50.822;4.324;2023-04-03T13:59:42;11.90;94.60
22436;DHT22;11385;50.822;4.324;2023-04-03T14:02:14;11.90;94.70
22436;DHT22;11385;50.822;4.324;2023-04-03T14:04:52;12.00;95.30
22436;DHT22;11385;50.822;4.324;2023-04-03T14:07:22;11.90;95.30
22436;DHT22;11385;50.822;4.324;2023-04-03T14:09:50;12.00;95.40
22436;DHT22;11385;50.822;4.324;2023-04-03T14:12:27;12.00;95.50
22436;DHT22;11385;50.822;4.324;2023-04-03T14:14:54;11.90;96.80
22436;DHT22;11385;50.822;4.324;2023-04-03T14:17:24;12.10;95.40
22436;DHT22;11385;50.822;4.324;2023-04-03T14:19:53;12.00;95.80
22436;DHT22;11385;50.822;4.324;2023-04-03T14:22:26;11.90;96.20
22436;DHT22;11385;50.822;4.324;2023-04-03T14:24:55;12.00;96.60
22436;DHT22;11385;50.822;4.324;2023-04-03T14:27:26;12.10;96.80
22436;DHT22;11385;50.822;4.324;2023-04-03T14:29:56;12.10;96.40
22436;DHT22;11385;50.822;4.324;2023-04-03T14:32:23;12.20;95.20
22436;DHT22;11385;50.822;4.324;2023-04-03T14:34:51;12.10;95.50
22436;DHT22;11385;50.822;4.324;2023-04-03T14:37:22;11.90;96.20
22436;DHT22;11385;50.822;4.324;2023-04-03T14:39:50;12.00;95.70
22436;DHT22;11385;50.822;4.324;2023-04-03T14:42:20;12.20;94.60
22436;DHT22;11385;50.822;4.324;2023-04-03T14:44:49;12.30;94.10
22436;DHT22;11385;50.822;4.324;2023-04-03T14:47:20;12.30;94.70
22436;DHT22;11385;50.822;4.324;2023-04-03T14:49:47;12.40;94.30
22436;DHT22;11385;50.822;4.324;2023-04-03T14:52:20;12.40;94.00
22436;DHT22;11385;50.822;4.324;2023-04-03T14:54:48;12.40;94.00
22436;DHT22;11385;50.822;4.324;2023-04-03T14:57:16;12.40;94.30
22436;DHT22;11385;50.822;4.324;2023-04-03T14:59:44;12.30;94.40
22436;DHT22;11385;50.822;4.324;2023-04-03T15:04:58;12.20;93.60
22436;DHT22;11385;50.822;4.324;2023-04-03T15:07:28;12.10;93.80
22436;DHT22;11385;50.822;4.324;2023-04-03T15:09:55;12.00;94.40
22436;DHT22;11385;50.822;4.324;2023-04-03T15:12:23;12.00;94.70
22436;DHT22;11385;50.822;4.324;2023-04-03T15:14:50;12.00;95.40
22436;DHT22;11385;50.822;4.324;2023-04-03T15:17:19;12.30;95.30
22436;DHT22;11385;50.822;4.324;2023-04-03T15:19:47;12.20;94.20
22436;DHT22;11385;50.822;4.324;2023-04-03T15:22:16;12.30;93.10
22436;DHT22;11385;50.822;4.324;2023-04-03T15:24:44;12.20;92.80
22436;DHT22;11385;50.822;4.324;2023-04-03T15:27:12;12.20;92.70
22436;DHT22;11385;50.822;4.324;2023-04-03T15:29:40;12.30;92.90
22436;DHT22;11385;50.822;4.324;2023-04-03T15:32:08;12.20;93.10
22436;DHT22;11385;50.822;4.324;2023-04-03T15:35:06;12.20;92.90
22436;DHT22;11385;50.822;4.324;2023-04-03T15:37:34;12.10;93.10
22436;DHT22;11385;50.822;4.324;2023-04-03T15:40:01;12.10;92.70
22436;DHT22;11385;50.822;4.324;2023-04-03T15:42:28;12.10;92.50
22436;DHT22;11385;50.822;4.324;2023-04-03T15:44:54;12.20;92.80
22436;DHT22;11385;50.822;4.324;2023-04-03T15:47:21;12.40;93.10
22436;DHT22;11385;50.822;4.324;2023-04-03T15:49:48;12.30;93.70
22436;DHT22;11385;50.822;4.324;2023-04-03T15:52:14;12.30;92.40
22436;DHT22;11385;50.822;4.324;2023-04-03T15:54:41;12.30;92.50
22436;DHT22;11385;50.822;4.324;2023-04-03T15:57:08;12.20;92.50
22436;DHT22;11385;50.822;4.324;2023-04-03T15:59:35;12.00;91.40
22436;DHT22;11385;50.822;4.324;2023-04-03T16:02:04;12.00;91.90
22436;DHT22;11385;50.822;4.324;2023-04-03T16:04:33;11.90;92.40
22436;DHT22;11385;50.822;4.324;2023-04-03T16:07:02;12.10;92.50
22436;DHT22;11385;50.822;4.324;2023-04-03T16:09:29;12.20;92.70
22436;DHT22;11385;50.822;4.324;2023-04-03T16:11:56;12.00;93.70
22436;DHT22;11385;50.822;4.324;2023-04-03T16:14:23;12.00;94.30
22436;DHT22;11385;50.822;4.324;2023-04-03T16:16:50;11.80;94.80
22436;DHT22;11385;50.822;4.324;2023-04-03T16:19:16;11.90;95.20
22436;DHT22;11385;50.822;4.324;2023-04-03T16:21:43;11.90;94.90
22436;DHT22;11385;50.822;4.324;2023-04-03T16:24:10;11.80;95.80
22436;DHT22;11385;50.822;4.324;2023-04-03T16:26:36;11.80;95.90
22436;DHT22;11385;50.822;4.324;2023-04-03T16:29:03;11.80;96.20